sensor_id;sensor_type;location;lat;lon;timestamp;temperature;humidity
71942;DHT22;59997;53.300;-6.260;2023-12-04T00:01:50;4.80;83.96
71942;DHT22;59997;53.300;-6.260;2023-12-04T00:04:15;4.84;84.18
71942;DHT22;59997;53.300;-6.260;2023-12-04T00:06:41;4.77;84.18
71942;DHT22;59997;53.300;-6.260;2023-12-04T00:09:07;4.76;84.24
71942;DHT22;59997;53.300;-6.260;2023-12-04T00:11:33;4.83;83.49
71942;DHT22;59997;53.300;-6.260;2023-12-04T00:13:58;4.80;83.79
71942;DHT22;59997;53.300;-6.260;2023-12-04T00:16:24;4.81;84.17
71942;DHT22;59997;53.300;-6.260;2023-12-04T00:18:50;4.81;84.08
71942;DHT22;59997;53.300;-6.260;2023-12-04T00:21:15;4.84;84.15
71942;DHT22;59997;53.300;-6.260;2023-12-04T00:23:41;4.80;84.08
71942;DHT22;59997;53.300;-6.260;2023-12-04T00:26:06;4.84;83.17
71942;DHT22;59997;53.300;-6.260;2023-12-04T00:28:35;4.85;84.25
71942;DHT22;59997;53.300;-6.260;2023-12-04T00:31:01;4.87;83.35
71942;DHT22;59997;53.300;-6.260;2023-12-04T00:33:27;4.88;83.53
71942;DHT22;59997;53.300;-6.260;2023-12-04T00:35:52;4.95;82.68
71942;DHT22;59997;53.300;-6.260;2023-12-04T00:38:18;4.91;82.89
71942;DHT22;59997;53.300;-6.260;2023-12-04T00:40:44;4.94;83.49
71942;DHT22;59997;53.300;-6.260;2023-12-04T00:43:09;4.94;83.64
71942;DHT22;59997;53.300;-6.260;2023-12-04T00:45:35;4.98;83.24
71942;DHT22;59997;53.300;-6.260;2023-12-04T00:48:00;5.01;83.19
71942;DHT22;59997;53.300;-6.260;2023-12-04T00:50:25;5.05;83.05
71942;DHT22;59997;53.300;-6.260;2023-12-04T00:52:51;5.09;83.08
71942;DHT22;59997;53.300;-6.260;2023-12-04T00:55:16;5.07;83.73
71942;DHT22;59997;53.300;-6.260;2023-12-04T00:57:42;5.11;83.74
71942;DHT22;59997;53.300;-6.260;2023-12-04T01:00:08;5.09;83.65
71942;DHT22;59997;53.300;-6.260;2023-12-04T01:02:33;5.09;83.85
71942;DHT22;59997;53.300;-6.260;2023-12-04T01:04:59;5.12;83.95
71942;DHT22;59997;53.300;-6.260;2023-12-04T01:07:24;5.09;84.58
71942;DHT22;59997;53.300;-6.260;2023-12-04T01:09:50;5.08;84.60
71942;DHT22;59997;53.300;-6.260;2023-12-04T01:12:15;5.09;84.10
71942;DHT22;59997;53.300;-6.260;2023-12-04T01:14:41;5.11;83.92
71942;DHT22;59997;53.300;-6.260;2023-12-04T01:17:06;5.16;83.63
71942;DHT22;59997;53.300;-6.260;2023-12-04T01:19:32;5.22;83.45
71942;DHT22;59997;53.300;-6.260;2023-12-04T01:21:58;5.24;83.23
71942;DHT22;59997;53.300;-6.260;2023-12-04T01:24:23;5.22;83.43
71942;DHT22;59997;53.300;-6.260;2023-12-04T01:26:49;5.21;83.77
71942;DHT22;59997;53.300;-6.260;2023-12-04T01:29:14;5.22;83.35
71942;DHT22;59997;53.300;-6.260;2023-12-04T01:31:40;5.26;83.21
71942;DHT22;59997;53.300;-6.260;2023-12-04T01:34:05;5.22;83.12
71942;DHT22;59997;53.300;-6.260;2023-12-04T01:36:30;5.24;82.84
71942;DHT22;59997;53.300;-6.260;2023-12-04T01:38:56;5.22;82.64
71942;DHT22;59997;53.300;-6.260;2023-12-04T01:41:21;5.25;82.35
71942;DHT22;59997;53.300;-6.260;2023-12-04T01:43:47;5.24;83.07
71942;DHT22;59997;53.300;-6.260;2023-12-04T01:46:16;5.19;83.12
71942;DHT22;59997;53.300;-6.260;2023-12-04T01:48:43;5.19;83.38
71942;DHT22;59997;53.300;-6.260;2023-12-04T01:51:09;5.18;83.63
71942;DHT22;59997;53.300;-6.260;2023-12-04T01:53:36;5.19;83.72
71942;DHT22;59997;53.300;-6.260;2023-12-04T01:56:03;5.18;83.72
71942;DHT22;59997;53.300;-6.260;2023-12-04T01:58:29;5.21;83.58
71942;DHT22;59997;53.300;-6.260;2023-12-04T02:00:55;5.18;83.78
71942;DHT22;59997;53.300;-6.260;2023-12-04T02:03:21;5.19;83.78
71942;DHT22;59997;53.300;-6.260;2023-12-04T02:05:47;5.25;83.70
71942;DHT22;59997;53.300;-6.260;2023-12-04T02:08:13;5.25;83.40
71942;DHT22;59997;53.300;-6.260;2023-12-04T02:10:38;5.24;84.23
71942;DHT22;59997;53.300;-6.260;2023-12-04T02:13:04;5.21;84.63
71942;DHT22;59997;53.300;-6.260;2023-12-04T02:15:30;5.24;84.93
71942;DHT22;59997;53.300;-6.260;2023-12-04T02:17:56;5.25;85.31
71942;DHT22;59997;53.300;-6.260;2023-12-04T02:20:33;5.25;85.80
71942;DHT22;59997;53.300;-6.260;2023-12-04T02:23:00;5.31;86.21
71942;DHT22;59997;53.300;-6.260;2023-12-04T02:25:26;5.32;86.68
71942;DHT22;59997;53.300;-6.260;2023-12-04T02:27:52;5.29;87.01
71942;DHT22;59997;53.300;-6.260;2023-12-04T02:30:21;5.35;87.13
71942;DHT22;59997;53.300;-6.260;2023-12-04T02:32:48;5.35;87.24
71942;DHT22;59997;53.300;-6.260;2023-12-04T02:35:15;5.32;86.88
71942;DHT22;59997;53.300;-6.260;2023-12-04T02:37:42;5.33;87.13
71942;DHT22;59997;53.300;-6.260;2023-12-04T02:40:08;5.40;86.21
71942;DHT22;59997;53.300;-6.260;2023-12-04T02:42:34;5.44;85.95
71942;DHT22;59997;53.300;-6.260;2023-12-04T02:44:59;5.43;85.85
71942;DHT22;59997;53.300;-6.260;2023-12-04T02:47:25;5.47;85.64
71942;DHT22;59997;53.300;-6.260;2023-12-04T02:49:50;5.49;85.26
71942;DHT22;59997;53.300;-6.260;2023-12-04T02:52:16;5.61;84.82
71942;DHT22;59997;53.300;-6.260;2023-12-04T02:54:41;5.61;85.06
71942;DHT22;59997;53.300;-6.260;2023-12-04T02:57:07;5.57;84.73
71942;DHT22;59997;53.300;-6.260;2023-12-04T02:59:32;5.52;84.80
71942;DHT22;59997;53.300;-6.260;2023-12-04T03:01:58;5.44;84.76
71942;DHT22;59997;53.300;-6.260;2023-12-04T03:04:24;5.38;84.56
71942;DHT22;59997;53.300;-6.260;2023-12-04T03:06:49;5.33;84.02
71942;DHT22;59997;53.300;-6.260;2023-12-04T03:09:15;5.36;83.68
71942;DHT22;59997;53.300;-6.260;2023-12-04T03:11:41;5.31;83.43
71942;DHT22;59997;53.300;-6.260;2023-12-04T03:14:07;5.31;83.39
71942;DHT22;59997;53.300;-6.260;2023-12-04T03:16:32;5.35;82.92
71942;DHT22;59997;53.300;-6.260;2023-12-04T03:18:58;5.29;83.15
71942;DHT22;59997;53.300;-6.260;2023-12-04T03:21:23;5.28;83.05
71942;DHT22;59997;53.300;-6.260;2023-12-04T03:23:48;5.26;83.34
71942;DHT22;59997;53.300;-6.260;2023-12-04T03:26:14;5.28;83.62
71942;DHT22;59997;53.300;-6.260;2023-12-04T03:28:39;5.24;83.99
71942;DHT22;59997;53.300;-6.260;2023-12-04T03:31:05;5.18;84.15
71942;DHT22;59997;53.300;-6.260;2023-12-04T03:33:31;5.16;84.51
71942;DHT22;59997;53.300;-6.260;2023-12-04T03:35:58;5.16;85.18
71942;DHT22;59997;53.300;-6.260;2023-12-04T03:38:23;5.11;85.49
71942;DHT22;59997;53.300;-6.260;2023-12-04T03:40:49;5.07;85.88
71942;DHT22;59997;53.300;-6.260;2023-12-04T03:43:14;5.04;86.24
71942;DHT22;59997;53.300;-6.260;2023-12-04T03:45:40;5.02;86.72
71942;DHT22;59997;53.300;-6.260;2023-12-04T03:48:05;4.98;86.92
71942;DHT22;59997;53.300;-6.260;2023-12-04T03:50:30;4.91;87.30
71942;DHT22;59997;53.300;-6.260;2023-12-04T03:52:56;4.97;87.15
71942;DHT22;59997;53.300;-6.260;2023-12-04T03:55:21;4.90;87.34
71942;DHT22;59997;53.300;-6.260;2023-12-04T03:57:47;4.88;87.45
71942;DHT22;59997;53.300;-6.260;2023-12-04T04:00:13;4.88;87.25
71942;DHT22;59997;53.300;-6.260;2023-12-04T04:02:42;4.88;87.25
71942;DHT22;59997;53.300;-6.260;2023-12-04T04:05:08;4.88;87.31
71942;DHT22;59997;53.300;-6.260;2023-12-04T04:07:34;4.90;87.34
71942;DHT22;59997;53.300;-6.260;2023-12-04T04:09:59;4.85;87.39
71942;DHT22;59997;53.300;-6.260;2023-12-04T04:12:26;4.83;86.95
71942;DHT22;59997;53.300;-6.260;2023-12-04T04:14:52;4.83;87.10
71942;DHT22;59997;53.300;-6.260;2023-12-04T04:17:17;4.81;86.81
71942;DHT22;59997;53.300;-6.260;2023-12-04T04:19:43;4.83;86.77
71942;DHT22;59997;53.300;-6.260;2023-12-04T04:22:08;4.80;86.71
71942;DHT22;59997;53.300;-6.260;2023-12-04T04:24:34;4.79;86.74
71942;DHT22;59997;53.300;-6.260;2023-12-04T04:26:59;4.80;86.57
71942;DHT22;59997;53.300;-6.260;2023-12-04T04:29:24;4.79;86.68
71942;DHT22;59997;53.300;-6.260;2023-12-04T04:31:50;4.76;86.47
71942;DHT22;59997;53.300;-6.260;2023-12-04T04:34:15;4.76;86.48
71942;DHT22;59997;53.300;-6.260;2023-12-04T04:36:42;4.76;86.56
71942;DHT22;59997;53.300;-6.260;2023-12-04T04:39:08;4.73;86.00
71942;DHT22;59997;53.300;-6.260;2023-12-04T04:41:36;4.73;86.10
71942;DHT22;59997;53.300;-6.260;2023-12-04T04:44:01;4.73;85.61
71942;DHT22;59997;53.300;-6.260;2023-12-04T04:46:27;4.70;85.84
71942;DHT22;59997;53.300;-6.260;2023-12-04T04:48:53;4.67;85.90
71942;DHT22;59997;53.300;-6.260;2023-12-04T04:51:19;4.72;85.42
71942;DHT22;59997;53.300;-6.260;2023-12-04T04:53:44;4.73;85.36
71942;DHT22;59997;53.300;-6.260;2023-12-04T04:56:10;4.69;85.38
71942;DHT22;59997;53.300;-6.260;2023-12-04T04:58:35;4.53;85.52
71942;DHT22;59997;53.300;-6.260;2023-12-04T05:01:01;4.39;85.95
71942;DHT22;59997;53.300;-6.260;2023-12-04T05:03:26;4.21;86.04
71942;DHT22;59997;53.300;-6.260;2023-12-04T05:05:52;4.11;86.24
71942;DHT22;59997;53.300;-6.260;2023-12-04T05:08:17;3.98;86.35
71942;DHT22;59997;53.300;-6.260;2023-12-04T05:10:43;3.90;86.54
71942;DHT22;59997;53.300;-6.260;2023-12-04T05:13:08;3.89;86.84
71942;DHT22;59997;53.300;-6.260;2023-12-04T05:15:34;3.80;87.05
71942;DHT22;59997;53.300;-6.260;2023-12-04T05:17:59;3.80;87.02
71942;DHT22;59997;53.300;-6.260;2023-12-04T05:20:24;3.80;87.05
71942;DHT22;59997;53.300;-6.260;2023-12-04T05:22:50;3.76;87.12
71942;DHT22;59997;53.300;-6.260;2023-12-04T05:25:16;3.72;87.09
71942;DHT22;59997;53.300;-6.260;2023-12-04T05:27:41;3.76;87.22
71942;DHT22;59997;53.300;-6.260;2023-12-04T05:30:07;3.72;87.28
71942;DHT22;59997;53.300;-6.260;2023-12-04T05:32:32;3.68;87.49
71942;DHT22;59997;53.300;-6.260;2023-12-04T05:34:58;3.68;87.56
71942;DHT22;59997;53.300;-6.260;2023-12-04T05:37:24;3.69;87.58
71942;DHT22;59997;53.300;-6.260;2023-12-04T05:39:49;3.70;87.39
71942;DHT22;59997;53.300;-6.260;2023-12-04T05:42:14;3.68;87.61
71942;DHT22;59997;53.300;-6.260;2023-12-04T05:44:40;3.63;87.70
71942;DHT22;59997;53.300;-6.260;2023-12-04T05:47:05;3.63;87.77
71942;DHT22;59997;53.300;-6.260;2023-12-04T05:49:33;3.65;87.43
71942;DHT22;59997;53.300;-6.260;2023-12-04T05:51:59;3.58;87.56
71942;DHT22;59997;53.300;-6.260;2023-12-04T05:54:24;3.56;87.60
71942;DHT22;59997;53.300;-6.260;2023-12-04T05:56:50;3.56;87.76
71942;DHT22;59997;53.300;-6.260;2023-12-04T05:59:15;3.56;87.86
71942;DHT22;59997;53.300;-6.260;2023-12-04T06:01:41;3.56;87.76
71942;DHT22;59997;53.300;-6.260;2023-12-04T06:04:06;3.56;87.73
71942;DHT22;59997;53.300;-6.260;2023-12-04T06:06:32;3.59;87.84
71942;DHT22;59997;53.300;-6.260;2023-12-04T06:08:57;3.61;87.80
71942;DHT22;59997;53.300;-6.260;2023-12-04T06:11:22;3.63;87.82
71942;DHT22;59997;53.300;-6.260;2023-12-04T06:13:48;3.62;87.89
71942;DHT22;59997;53.300;-6.260;2023-12-04T06:16:13;3.58;87.87
71942;DHT22;59997;53.300;-6.260;2023-12-04T06:18:39;3.58;87.99
71942;DHT22;59997;53.300;-6.260;2023-12-04T06:21:05;3.54;87.76
71942;DHT22;59997;53.300;-6.260;2023-12-04T06:23:30;3.51;87.88
71942;DHT22;59997;53.300;-6.260;2023-12-04T06:25:56;3.48;88.06
71942;DHT22;59997;53.300;-6.260;2023-12-04T06:28:22;3.44;88.12
71942;DHT22;59997;53.300;-6.260;2023-12-04T06:30:48;3.42;88.26
71942;DHT22;59997;53.300;-6.260;2023-12-04T06:33:13;3.44;88.30
71942;DHT22;59997;53.300;-6.260;2023-12-04T06:35:41;3.41;88.43
71942;DHT22;59997;53.300;-6.260;2023-12-04T06:38:07;3.41;88.59
71942;DHT22;59997;53.300;-6.260;2023-12-04T06:40:34;3.38;88.46
71942;DHT22;59997;53.300;-6.260;2023-12-04T06:43:00;3.39;88.37
71942;DHT22;59997;53.300;-6.260;2023-12-04T06:45:25;3.38;88.27
71942;DHT22;59997;53.300;-6.260;2023-12-04T06:47:53;3.39;88.56
71942;DHT22;59997;53.300;-6.260;2023-12-04T06:50:19;3.38;88.56
71942;DHT22;59997;53.300;-6.260;2023-12-04T06:52:45;3.37;88.65
71942;DHT22;59997;53.300;-6.260;2023-12-04T06:55:11;3.34;88.59
71942;DHT22;59997;53.300;-6.260;2023-12-04T06:57:37;3.34;88.89
71942;DHT22;59997;53.300;-6.260;2023-12-04T07:00:03;3.34;88.76
71942;DHT22;59997;53.300;-6.260;2023-12-04T07:02:29;3.39;88.69
71942;DHT22;59997;53.300;-6.260;2023-12-04T07:04:54;3.41;88.73
71942;DHT22;59997;53.300;-6.260;2023-12-04T07:07:20;3.41;88.55
71942;DHT22;59997;53.300;-6.260;2023-12-04T07:09:46;3.42;88.55
71942;DHT22;59997;53.300;-6.260;2023-12-04T07:12:11;3.44;88.59
71942;DHT22;59997;53.300;-6.260;2023-12-04T07:14:37;3.39;88.63
71942;DHT22;59997;53.300;-6.260;2023-12-04T07:17:02;3.39;88.69
71942;DHT22;59997;53.300;-6.260;2023-12-04T07:19:27;3.31;88.71
71942;DHT22;59997;53.300;-6.260;2023-12-04T07:21:54;3.34;88.86
71942;DHT22;59997;53.300;-6.260;2023-12-04T07:24:19;3.30;88.78
71942;DHT22;59997;53.300;-6.260;2023-12-04T07:26:45;3.32;88.77
71942;DHT22;59997;53.300;-6.260;2023-12-04T07:29:11;3.31;88.95
71942;DHT22;59997;53.300;-6.260;2023-12-04T07:31:37;3.34;88.71
71942;DHT22;59997;53.300;-6.260;2023-12-04T07:34:02;3.31;88.74
71942;DHT22;59997;53.300;-6.260;2023-12-04T07:36:28;3.31;88.81
71942;DHT22;59997;53.300;-6.260;2023-12-04T07:38:54;3.30;88.82
71942;DHT22;59997;53.300;-6.260;2023-12-04T07:41:20;3.28;88.92
71942;DHT22;59997;53.300;-6.260;2023-12-04T07:43:46;3.28;89.03
71942;DHT22;59997;53.300;-6.260;2023-12-04T07:46:11;3.27;89.13
71942;DHT22;59997;53.300;-6.260;2023-12-04T07:48:37;3.23;89.19
71942;DHT22;59997;53.300;-6.260;2023-12-04T07:51:03;3.20;89.35
71942;DHT22;59997;53.300;-6.260;2023-12-04T07:53:29;3.18;89.45
71942;DHT22;59997;53.300;-6.260;2023-12-04T07:55:55;3.17;89.41
71942;DHT22;59997;53.300;-6.260;2023-12-04T07:58:20;3.14;89.63
71942;DHT22;59997;53.300;-6.260;2023-12-04T08:00:47;3.07;89.64
71942;DHT22;59997;53.300;-6.260;2023-12-04T08:03:12;3.10;89.68
71942;DHT22;59997;53.300;-6.260;2023-12-04T08:05:38;3.04;89.63
71942;DHT22;59997;53.300;-6.260;2023-12-04T08:08:04;3.03;89.84
71942;DHT22;59997;53.300;-6.260;2023-12-04T08:10:30;3.02;89.81
71942;DHT22;59997;53.300;-6.260;2023-12-04T08:12:55;3.02;89.99
71942;DHT22;59997;53.300;-6.260;2023-12-04T08:15:20;3.02;89.86
71942;DHT22;59997;53.300;-6.260;2023-12-04T08:17:46;3.00;89.96
71942;DHT22;59997;53.300;-6.260;2023-12-04T08:20:11;3.04;90.02
71942;DHT22;59997;53.300;-6.260;2023-12-04T08:22:41;3.02;89.84
71942;DHT22;59997;53.300;-6.260;2023-12-04T08:25:09;3.03;89.99
71942;DHT22;59997;53.300;-6.260;2023-12-04T08:27:35;3.03;89.83
71942;DHT22;59997;53.300;-6.260;2023-12-04T08:30:00;3.03;89.84
71942;DHT22;59997;53.300;-6.260;2023-12-04T08:32:26;3.04;89.85
71942;DHT22;59997;53.300;-6.260;2023-12-04T08:34:54;3.04;89.88
71942;DHT22;59997;53.300;-6.260;2023-12-04T08:37:19;3.03;89.73
71942;DHT22;59997;53.300;-6.260;2023-12-04T08:39:45;3.07;89.63
71942;DHT22;59997;53.300;-6.260;2023-12-04T08:42:11;3.10;89.62
71942;DHT22;59997;53.300;-6.260;2023-12-04T08:44:37;3.11;89.38
71942;DHT22;59997;53.300;-6.260;2023-12-04T08:47:02;3.14;89.34
71942;DHT22;59997;53.300;-6.260;2023-12-04T08:49:28;3.14;89.37
71942;DHT22;59997;53.300;-6.260;2023-12-04T08:51:53;3.09;89.47
71942;DHT22;59997;53.300;-6.260;2023-12-04T08:54:19;3.16;89.34
71942;DHT22;59997;53.300;-6.260;2023-12-04T08:56:44;3.13;89.42
71942;DHT22;59997;53.300;-6.260;2023-12-04T08:59:10;3.09;89.41
71942;DHT22;59997;53.300;-6.260;2023-12-04T09:01:36;3.06;89.61
71942;DHT22;59997;53.300;-6.260;2023-12-04T09:04:01;3.03;89.80
71942;DHT22;59997;53.300;-6.260;2023-12-04T09:06:27;3.06;89.77
71942;DHT22;59997;53.300;-6.260;2023-12-04T09:08:52;3.02;89.88
71942;DHT22;59997;53.300;-6.260;2023-12-04T09:11:18;2.97;89.84
71942;DHT22;59997;53.300;-6.260;2023-12-04T09:13:43;2.93;90.04
71942;DHT22;59997;53.300;-6.260;2023-12-04T09:16:09;2.96;90.09
71942;DHT22;59997;53.300;-6.260;2023-12-04T09:18:34;2.93;90.00
71942;DHT22;59997;53.300;-6.260;2023-12-04T09:21:00;2.91;90.15
71942;DHT22;59997;53.300;-6.260;2023-12-04T09:23:25;2.92;90.23
71942;DHT22;59997;53.300;-6.260;2023-12-04T09:25:54;2.91;90.11
71942;DHT22;59997;53.300;-6.260;2023-12-04T09:28:19;2.91;90.11
71942;DHT22;59997;53.300;-6.260;2023-12-04T09:30:44;2.89;90.16
71942;DHT22;59997;53.300;-6.260;2023-12-04T09:33:10;2.91;90.10
71942;DHT22;59997;53.300;-6.260;2023-12-04T09:35:35;2.91;90.21
71942;DHT22;59997;53.300;-6.260;2023-12-04T09:38:01;2.95;89.99
71942;DHT22;59997;53.300;-6.260;2023-12-04T09:40:27;2.92;90.06
71942;DHT22;59997;53.300;-6.260;2023-12-04T09:42:53;2.93;90.02
71942;DHT22;59997;53.300;-6.260;2023-12-04T09:45:19;2.97;89.82
71942;DHT22;59997;53.300;-6.260;2023-12-04T09:47:47;2.96;89.79
71942;DHT22;59997;53.300;-6.260;2023-12-04T09:50:14;2.99;89.96
71942;DHT22;59997;53.300;-6.260;2023-12-04T09:52:41;2.97;89.86
71942;DHT22;59997;53.300;-6.260;2023-12-04T09:55:10;2.95;89.99
71942;DHT22;59997;53.300;-6.260;2023-12-04T09:57:35;2.96;90.02
71942;DHT22;59997;53.300;-6.260;2023-12-04T10:00:03;2.99;89.81
71942;DHT22;59997;53.300;-6.260;2023-12-04T10:02:30;2.96;89.99
71942;DHT22;59997;53.300;-6.260;2023-12-04T10:04:56;2.95;89.96
71942;DHT22;59997;53.300;-6.260;2023-12-04T10:07:21;2.91;89.92
71942;DHT22;59997;53.300;-6.260;2023-12-04T10:09:47;2.92;89.90
71942;DHT22;59997;53.300;-6.260;2023-12-04T10:12:12;2.92;89.85
71942;DHT22;59997;53.300;-6.260;2023-12-04T10:14:37;2.96;89.84
71942;DHT22;59997;53.300;-6.260;2023-12-04T10:17:16;2.95;89.88
71942;DHT22;59997;53.300;-6.260;2023-12-04T10:19:43;2.99;89.74
71942;DHT22;59997;53.300;-6.260;2023-12-04T10:22:08;3.02;89.72
71942;DHT22;59997;53.300;-6.260;2023-12-04T10:24:37;3.09;89.64
71942;DHT22;59997;53.300;-6.260;2023-12-04T10:27:10;3.06;89.52
71942;DHT22;59997;53.300;-6.260;2023-12-04T10:29:45;3.04;89.47
71942;DHT22;59997;53.300;-6.260;2023-12-04T10:32:13;3.06;89.45
71942;DHT22;59997;53.300;-6.260;2023-12-04T10:34:43;3.10;89.49
71942;DHT22;59997;53.300;-6.260;2023-12-04T10:37:09;3.11;89.46
71942;DHT22;59997;53.300;-6.260;2023-12-04T10:39:51;3.16;89.27
71942;DHT22;59997;53.300;-6.260;2023-12-04T10:42:29;3.14;89.38
71942;DHT22;59997;53.300;-6.260;2023-12-04T10:44:58;3.14;89.25
71942;DHT22;59997;53.300;-6.260;2023-12-04T10:47:24;3.16;89.20
71942;DHT22;59997;53.300;-6.260;2023-12-04T10:49:50;3.18;89.26
71942;DHT22;59997;53.300;-6.260;2023-12-04T10:52:19;3.23;89.07
71942;DHT22;59997;53.300;-6.260;2023-12-04T10:54:48;3.24;88.86
71942;DHT22;59997;53.300;-6.260;2023-12-04T10:57:22;3.30;89.01
71942;DHT22;59997;53.300;-6.260;2023-12-04T10:59:57;3.34;88.97
71942;DHT22;59997;53.300;-6.260;2023-12-04T11:02:26;3.45;88.60
71942;DHT22;59997;53.300;-6.260;2023-12-04T11:05:04;3.50;88.25
71942;DHT22;59997;53.300;-6.260;2023-12-04T11:07:33;3.51;88.00
71942;DHT22;59997;53.300;-6.260;2023-12-04T11:10:00;3.50;87.88
71942;DHT22;59997;53.300;-6.260;2023-12-04T11:12:29;3.56;87.72
71942;DHT22;59997;53.300;-6.260;2023-12-04T11:14:59;3.61;87.73
71942;DHT22;59997;53.300;-6.260;2023-12-04T11:17:30;3.62;87.83
71942;DHT22;59997;53.300;-6.260;2023-12-04T11:20:04;3.63;87.64
71942;DHT22;59997;53.300;-6.260;2023-12-04T11:22:34;3.66;87.63
71942;DHT22;59997;53.300;-6.260;2023-12-04T11:25:02;3.70;87.40
71942;DHT22;59997;53.300;-6.260;2023-12-04T11:27:31;3.76;87.31
71942;DHT22;59997;53.300;-6.260;2023-12-04T11:29:57;3.83;86.93
71942;DHT22;59997;53.300;-6.260;2023-12-04T11:32:24;3.80;86.65
71942;DHT22;59997;53.300;-6.260;2023-12-04T11:34:58;3.89;87.08
71942;DHT22;59997;53.300;-6.260;2023-12-04T11:37:24;3.90;86.64
71942;DHT22;59997;53.300;-6.260;2023-12-04T11:39:50;3.96;86.22
71942;DHT22;59997;53.300;-6.260;2023-12-04T11:42:23;3.94;86.56
71942;DHT22;59997;53.300;-6.260;2023-12-04T11:44:49;3.97;86.31
71942;DHT22;59997;53.300;-6.260;2023-12-04T11:47:15;3.94;86.44
71942;DHT22;59997;53.300;-6.260;2023-12-04T11:49:41;3.97;86.53
71942;DHT22;59997;53.300;-6.260;2023-12-04T11:52:06;3.91;86.70
71942;DHT22;59997;53.300;-6.260;2023-12-04T11:57:24;4.00;86.76
71942;DHT22;59997;53.300;-6.260;2023-12-04T12:05:18;3.93;86.94
71942;DHT22;59997;53.300;-6.260;2023-12-04T12:07:45;3.98;87.12
71942;DHT22;59997;53.300;-6.260;2023-12-04T12:10:11;4.03;86.97
71942;DHT22;59997;53.300;-6.260;2023-12-04T12:12:41;4.01;86.72
71942;DHT22;59997;53.300;-6.260;2023-12-04T12:15:11;4.08;86.91
71942;DHT22;59997;53.300;-6.260;2023-12-04T12:17:41;4.13;86.74
71942;DHT22;59997;53.300;-6.260;2023-12-04T12:20:11;4.14;86.70
71942;DHT22;59997;53.300;-6.260;2023-12-04T12:22:37;4.18;86.73
71942;DHT22;59997;53.300;-6.260;2023-12-04T12:25:10;4.18;86.96
71942;DHT22;59997;53.300;-6.260;2023-12-04T12:27:36;4.15;86.93
71942;DHT22;59997;53.300;-6.260;2023-12-04T12:30:02;4.17;87.09
71942;DHT22;59997;53.300;-6.260;2023-12-04T12:32:33;4.18;87.18
71942;DHT22;59997;53.300;-6.260;2023-12-04T12:34:59;4.17;87.35
71942;DHT22;59997;53.300;-6.260;2023-12-04T12:37:24;4.22;87.18
71942;DHT22;59997;53.300;-6.260;2023-12-04T12:39:51;4.25;87.23
71942;DHT22;59997;53.300;-6.260;2023-12-04T12:42:29;4.27;87.24
71942;DHT22;59997;53.300;-6.260;2023-12-04T12:44:59;4.24;87.03
71942;DHT22;59997;53.300;-6.260;2023-12-04T12:47:25;4.30;87.39
71942;DHT22;59997;53.300;-6.260;2023-12-04T12:49:52;4.30;87.40
71942;DHT22;59997;53.300;-6.260;2023-12-04T12:52:17;4.37;87.19
71942;DHT22;59997;53.300;-6.260;2023-12-04T12:54:43;4.32;87.37
71942;DHT22;59997;53.300;-6.260;2023-12-04T12:57:10;4.37;87.30
71942;DHT22;59997;53.300;-6.260;2023-12-04T12:59:40;4.41;87.38
71942;DHT22;59997;53.300;-6.260;2023-12-04T13:02:06;4.37;87.51
71942;DHT22;59997;53.300;-6.260;2023-12-04T13:04:44;4.38;87.99
71942;DHT22;59997;53.300;-6.260;2023-12-04T13:07:10;4.44;87.99
71942;DHT22;59997;53.300;-6.260;2023-12-04T13:09:36;4.48;87.95
71942;DHT22;59997;53.300;-6.260;2023-12-04T13:12:03;4.50;87.74
71942;DHT22;59997;53.300;-6.260;2023-12-04T13:14:30;4.60;88.08
71942;DHT22;59997;53.300;-6.260;2023-12-04T13:16:56;4.60;87.98
71942;DHT22;59997;53.300;-6.260;2023-12-04T13:19:22;4.62;87.55
71942;DHT22;59997;53.300;-6.260;2023-12-04T13:21:48;4.66;87.72
71942;DHT22;59997;53.300;-6.260;2023-12-04T13:24:14;4.66;87.79
71942;DHT22;59997;53.300;-6.260;2023-12-04T13:26:39;4.76;87.66
71942;DHT22;59997;53.300;-6.260;2023-12-04T13:29:05;4.79;87.55
71942;DHT22;59997;53.300;-6.260;2023-12-04T13:31:33;4.79;87.48
71942;DHT22;59997;53.300;-6.260;2023-12-04T13:33:59;4.79;87.57
71942;DHT22;59997;53.300;-6.260;2023-12-04T13:36:25;4.81;87.56
71942;DHT22;59997;53.300;-6.260;2023-12-04T13:38:52;4.85;87.72
71942;DHT22;59997;53.300;-6.260;2023-12-04T13:41:18;4.81;88.06
71942;DHT22;59997;53.300;-6.260;2023-12-04T13:44:04;4.81;88.19
71942;DHT22;59997;53.300;-6.260;2023-12-04T13:46:29;4.79;88.21
71942;DHT22;59997;53.300;-6.260;2023-12-04T13:48:56;4.77;88.25
71942;DHT22;59997;53.300;-6.260;2023-12-04T13:51:22;4.85;88.19
71942;DHT22;59997;53.300;-6.260;2023-12-04T13:53:48;4.98;88.02
71942;DHT22;59997;53.300;-6.260;2023-12-04T13:56:16;5.00;87.88
71942;DHT22;59997;53.300;-6.260;2023-12-04T13:58:59;4.97;87.48
71942;DHT22;59997;53.300;-6.260;2023-12-04T14:01:26;4.95;87.82
71942;DHT22;59997;53.300;-6.260;2023-12-04T14:03:56;5.00;87.44
71942;DHT22;59997;53.300;-6.260;2023-12-04T14:06:27;5.05;87.37
71942;DHT22;59997;53.300;-6.260;2023-12-04T14:08:52;5.01;87.30
71942;DHT22;59997;53.300;-6.260;2023-12-04T14:11:18;5.04;87.05
71942;DHT22;59997;53.300;-6.260;2023-12-04T14:13:43;5.05;87.20
71942;DHT22;59997;53.300;-6.260;2023-12-04T14:16:09;5.02;87.07
71942;DHT22;59997;53.300;-6.260;2023-12-04T14:18:35;5.00;87.09
71942;DHT22;59997;53.300;-6.260;2023-12-04T14:21:00;4.94;87.06
71942;DHT22;59997;53.300;-6.260;2023-12-04T14:23:26;4.91;87.20
71942;DHT22;59997;53.300;-6.260;2023-12-04T14:25:51;4.88;87.21
71942;DHT22;59997;53.300;-6.260;2023-12-04T14:28:17;4.94;87.22
71942;DHT22;59997;53.300;-6.260;2023-12-04T14:30:43;4.94;87.25
71942;DHT22;59997;53.300;-6.260;2023-12-04T14:33:09;4.90;87.71
71942;DHT22;59997;53.300;-6.260;2023-12-04T14:35:35;4.90;88.28
71942;DHT22;59997;53.300;-6.260;2023-12-04T14:38:03;4.88;88.25
71942;DHT22;59997;53.300;-6.260;2023-12-04T14:40:28;4.88;88.36
71942;DHT22;59997;53.300;-6.260;2023-12-04T14:42:54;4.91;88.17
71942;DHT22;59997;53.300;-6.260;2023-12-04T14:45:19;4.90;88.21
71942;DHT22;59997;53.300;-6.260;2023-12-04T14:47:46;4.94;88.23
71942;DHT22;59997;53.300;-6.260;2023-12-04T14:50:13;5.00;88.19
71942;DHT22;59997;53.300;-6.260;2023-12-04T14:52:38;5.04;88.03
71942;DHT22;59997;53.300;-6.260;2023-12-04T14:55:12;5.09;88.01
71942;DHT22;59997;53.300;-6.260;2023-12-04T14:58:03;5.18;87.72
71942;DHT22;59997;53.300;-6.260;2023-12-04T15:00:48;5.26;87.83
71942;DHT22;59997;53.300;-6.260;2023-12-04T15:03:48;5.29;87.48
71942;DHT22;59997;53.300;-6.260;2023-12-04T15:06:32;5.28;87.51
71942;DHT22;59997;53.300;-6.260;2023-12-04T15:08:58;5.31;87.56
71942;DHT22;59997;53.300;-6.260;2023-12-04T15:11:42;5.28;88.00
71942;DHT22;59997;53.300;-6.260;2023-12-04T15:14:26;5.35;87.55
71942;DHT22;59997;53.300;-6.260;2023-12-04T15:17:11;5.39;87.22
71942;DHT22;59997;53.300;-6.260;2023-12-04T15:19:59;5.35;87.17
71942;DHT22;59997;53.300;-6.260;2023-12-04T15:22:24;5.42;87.11
71942;DHT22;59997;53.300;-6.260;2023-12-04T15:24:50;5.43;87.07
71942;DHT22;59997;53.300;-6.260;2023-12-04T15:27:17;5.46;86.79
71942;DHT22;59997;53.300;-6.260;2023-12-04T15:29:43;5.47;86.80
71942;DHT22;59997;53.300;-6.260;2023-12-04T15:32:08;5.46;86.73
71942;DHT22;59997;53.300;-6.260;2023-12-04T15:34:34;5.46;86.59
71942;DHT22;59997;53.300;-6.260;2023-12-04T15:36:59;5.44;86.70